Time;durP1;ratioP1;P1;durP2;ratioP2;P2;SDS_P1;SDS_P2;PMS_P1;PMS_P2;Temp;Humidity;BMP_temperature;BMP_pressure;BME280_temperature;BME280_humidity;BME280_pressure;Samples;Min_cycle;Max_cycle;Signal;HPM_P1;HPM_P2
2021/08/19 00:00:05;;;;;;;12.80;6.55;;;;;;;18.86;73.17;96236.09;5054349;28;20104;-60
2021/08/19 00:02:31;;;;;;;10.05;6.40;;;;;;;18.88;73.44;96253.59;5054311;28;20100;-59
2021/08/19 00:04:57;;;;;;;13.25;6.03;;;;;;;18.91;73.41;96258.63;5054370;28;20104;-59
2021/08/19 00:07:22;;;;;;;8.85;5.65;;;;;;;18.92;73.31;96259.47;5054363;28;20200;-59
2021/08/19 00:09:48;;;;;;;14.65;6.57;;;;;;;18.87;72.38;96264.31;5054182;28;20449;-61
2021/08/19 00:12:13;;;;;;;10.73;5.90;;;;;;;18.90;72.90;96262.25;5054160;28;20037;-60
2021/08/19 00:14:39;;;;;;;11.80;6.32;;;;;;;18.93;72.72;96264.66;5053334;28;20024;-59
2021/08/19 00:17:07;;;;;;;10.32;6.45;;;;;;;18.97;73.39;96261.78;5054142;28;20095;-60
2021/08/19 00:19:33;;;;;;;10.82;6.60;;;;;;;18.97;73.13;96259.13;5054089;28;20029;-60
2021/08/19 00:22:01;;;;;;;10.40;5.78;;;;;;;19.01;72.74;96258.78;5054055;28;20074;-59
2021/08/19 00:24:26;;;;;;;14.68;6.55;;;;;;;18.94;72.43;96260.22;5053897;28;20025;-59
2021/08/19 00:26:52;;;;;;;13.98;6.38;;;;;;;18.81;72.50;96257.63;5053937;28;20025;-60
2021/08/19 00:29:18;;;;;;;12.68;6.35;;;;;;;18.71;73.54;96259.31;5053890;28;20021;-59
2021/08/19 00:31:43;;;;;;;16.80;6.45;;;;;;;18.70;73.72;96261.13;5053876;28;20383;-59
2021/08/19 00:34:09;;;;;;;12.88;6.78;;;;;;;18.72;73.24;96255.72;5053661;28;20036;-60
2021/08/19 00:36:35;;;;;;;8.88;5.88;;;;;;;18.75;72.45;96255.47;5053647;28;20037;-60
2021/08/19 00:39:01;;;;;;;10.93;5.68;;;;;;;18.72;72.33;96261.84;5053762;28;20037;-59
2021/08/19 00:41:26;;;;;;;9.45;5.55;;;;;;;18.65;72.59;96250.88;5053439;28;20143;-59
2021/08/19 00:43:54;;;;;;;8.82;6.85;;;;;;;18.56;72.93;96246.25;5053607;28;20104;-60
2021/08/19 00:46:31;;;;;;;9.25;6.03;;;;;;;18.56;73.29;96251.56;5053542;28;20036;-60
2021/08/19 00:49:07;;;;;;;7.80;5.72;;;;;;;18.48;73.01;96251.31;5053546;28;20053;-60
2021/08/19 00:51:35;;;;;;;8.98;5.45;;;;;;;18.49;74.02;96255.63;5053730;28;20051;-59
2021/08/19 00:54:03;;;;;;;10.80;6.60;;;;;;;18.49;73.70;96250.34;5053487;28;20025;-60
2021/08/19 00:56:28;;;;;;;9.73;5.93;;;;;;;18.48;74.23;96246.00;5053528;28;20032;-59
2021/08/19 00:58:57;;;;;;;10.65;7.05;;;;;;;18.51;74.59;96251.91;5052109;28;20029;-59
2021/08/19 01:01:23;;;;;;;10.45;6.28;;;;;;;18.52;74.73;96250.09;5053282;28;20026;-60
2021/08/19 01:03:49;;;;;;;13.23;6.55;;;;;;;18.53;74.29;96244.69;5053251;28;20096;-60
2021/08/19 01:06:15;;;;;;;10.63;6.40;;;;;;;18.55;74.40;96247.22;5053424;28;20433;-59
2021/08/19 01:08:41;;;;;;;11.43;6.20;;;;;;;18.57;73.98;96237.34;5053192;28;20029;-59
2021/08/19 01:11:07;;;;;;;11.10;6.10;;;;;;;18.52;74.10;96237.72;5053258;28;20027;-59
2021/08/19 01:13:33;;;;;;;11.75;6.93;;;;;;;18.52;73.69;96242.16;5053241;28;20474;-59
2021/08/19 01:16:00;;;;;;;8.32;5.97;;;;;;;18.50;74.20;96238.78;5053160;28;20017;-59
2021/08/19 01:18:45;;;;;;;8.68;5.57;;;;;;;18.50;73.24;96246.72;5053168;28;20116;-58
2021/08/19 01:21:15;;;;;;;10.00;6.45;;;;;;;18.51;73.57;96249.25;5053172;28;20029;-60
2021/08/19 01:23:41;;;;;;;12.30;5.60;;;;;;;18.50;73.24;96238.78;5053076;28;20044;-60
2021/08/19 01:26:18;;;;;;;10.65;5.75;;;;;;;18.50;73.33;96236.97;5052880;28;20025;-59
2021/08/19 01:28:46;;;;;;;7.13;5.60;;;;;;;18.46;73.14;96237.31;5053143;28;20108;-59
2021/08/19 01:31:22;;;;;;;13.00;5.70;;;;;;;18.38;73.33;96235.25;5052964;28;20087;-59
2021/08/19 01:33:48;;;;;;;9.23;5.28;;;;;;;18.32;72.77;96233.91;5053021;28;20087;-58
2021/08/19 01:36:15;;;;;;;8.77;5.43;;;;;;;18.31;72.62;96229.56;5052955;28;20032;-58
2021/08/19 01:38:42;;;;;;;8.38;5.65;;;;;;;18.33;73.19;96229.47;5052789;28;20095;-58
2021/08/19 01:41:08;;;;;;;11.73;5.43;;;;;;;18.35;72.99;96227.53;5052679;28;20098;-59
2021/08/19 01:43:35;;;;;;;9.10;5.70;;;;;;;18.38;73.04;96222.00;5052833;28;20013;-59
2021/08/19 01:46:02;;;;;;;9.07;5.63;;;;;;;18.30;72.54;96220.78;5052798;28;20540;-59
2021/08/19 01:48:28;;;;;;;7.32;5.38;;;;;;;18.28;72.69;96224.50;5052859;28;20037;-59
2021/08/19 01:50:55;;;;;;;10.75;5.38;;;;;;;18.21;72.13;96233.88;5052723;28;20371;-59
2021/08/19 01:53:21;;;;;;;8.27;5.60;;;;;;;18.21;72.19;96228.56;5052827;28;20036;-59
2021/08/19 01:55:46;;;;;;;7.97;4.75;;;;;;;18.11;72.02;96234.53;5052720;28;20029;-60
2021/08/19 01:58:12;;;;;;;9.57;5.35;;;;;;;18.04;72.03;96238.56;5051519;28;20047;-59
2021/08/19 02:00:38;;;;;;;7.88;5.50;;;;;;;17.98;71.85;96231.06;5052659;28;20029;-59
2021/08/19 02:03:04;;;;;;;13.00;5.35;;;;;;;18.00;72.56;96229.16;5052642;28;20056;-59
2021/08/19 02:05:30;;;;;;;7.10;4.80;;;;;;;17.92;72.04;96230.56;5052761;28;20044;-60
2021/08/19 02:07:56;;;;;;;9.60;5.80;;;;;;;17.88;72.05;96222.97;5052637;28;20017;-59
2021/08/19 02:10:21;;;;;;;7.85;5.18;;;;;;;17.93;71.69;96223.47;5052557;28;20074;-60
2021/08/19 02:12:47;;;;;;;8.43;4.78;;;;;;;17.88;71.38;96217.69;5052575;28;20029;-59
2021/08/19 02:15:14;;;;;;;6.63;4.80;;;;;;;17.88;71.13;96220.31;5052619;28;20033;-60
2021/08/19 02:17:39;;;;;;;5.97;4.03;;;;;;;17.81;70.74;96211.97;5052646;28;20028;-60
2021/08/19 02:20:05;;;;;;;7.70;4.38;;;;;;;17.70;70.56;96214.56;5052584;28;20013;-60
2021/08/19 02:22:31;;;;;;;13.15;4.60;;;;;;;17.47;71.20;96206.47;5052491;28;20056;-60
2021/08/19 02:24:57;;;;;;;13.30;4.97;;;;;;;17.38;71.53;96200.03;5052445;28;20107;-60
2021/08/19 02:27:22;;;;;;;6.95;5.03;;;;;;;17.24;71.31;96203.66;5052402;28;20096;-60
2021/08/19 02:29:49;;;;;;;8.15;4.65;;;;;;;17.14;71.47;96203.47;5052317;28;20025;-59
2021/08/19 02:32:16;;;;;;;5.55;3.80;;;;;;;17.10;71.59;96212.56;5052456;28;20096;-60
2021/08/19 02:34:41;;;;;;;9.52;4.65;;;;;;;17.04;72.10;96208.53;5052391;28;20013;-60
2021/08/19 02:37:07;;;;;;;8.32;4.43;;;;;;;17.04;72.06;96205.88;5053202;28;20017;-59
2021/08/19 02:39:33;;;;;;;4.38;3.97;;;;;;;17.01;71.73;96206.09;5055725;28;20049;-59
2021/08/19 02:41:58;;;;;;;5.97;4.00;;;;;;;17.07;71.98;96216.28;5055959;28;20021;-60
2021/08/19 02:44:24;;;;;;;6.35;3.90;;;;;;;17.01;71.41;96211.38;5055951;28;20154;-60
2021/08/19 02:46:49;;;;;;;14.75;4.60;;;;;;;16.98;71.54;96222.16;5055920;28;20084;-60
2021/08/19 02:49:15;;;;;;;8.05;4.15;;;;;;;16.87;70.80;96220.25;5055721;28;20032;-60
2021/08/19 02:51:40;;;;;;;7.35;4.07;;;;;;;16.80;71.12;96220.66;5055695;28;20017;-58
2021/08/19 02:54:06;;;;;;;8.55;4.43;;;;;;;16.77;71.14;96225.34;5055743;28;20025;-59
2021/08/19 02:56:32;;;;;;;7.35;3.92;;;;;;;16.68;71.55;96222.34;5055918;28;20401;-60
2021/08/19 02:58:57;;;;;;;9.90;4.40;;;;;;;16.70;71.83;96221.41;5055687;28;20091;-60
2021/08/19 03:01:23;;;;;;;7.35;4.13;;;;;;;16.76;71.38;96219.19;5055539;28;20368;-61
2021/08/19 03:03:48;;;;;;;4.82;3.95;;;;;;;16.72;70.83;96219.50;5055457;28;20028;-62
2021/08/19 03:06:14;;;;;;;6.45;3.50;;;;;;;16.63;70.70;96223.63;5055558;28;20044;-60
2021/08/19 03:08:39;;;;;;;5.90;3.70;;;;;;;16.48;70.91;96215.78;5055488;28;20017;-60
2021/08/19 03:11:05;;;;;;;7.72;4.03;;;;;;;16.42;71.06;96224.97;5055222;28;20059;-60
2021/08/19 03:13:31;;;;;;;6.00;4.20;;;;;;;16.31;70.88;96224.00;5055277;28;20017;-61
2021/08/19 03:15:56;;;;;;;10.77;4.82;;;;;;;16.16;71.30;96224.88;5055280;28;20471;-59
2021/08/19 03:18:22;;;;;;;6.78;4.20;;;;;;;16.14;71.74;96229.41;5055307;28;20091;-60
2021/08/19 03:20:47;;;;;;;7.78;4.60;;;;;;;16.12;71.66;96220.78;5055282;28;20102;-61
2021/08/19 03:23:13;;;;;;;4.60;3.90;;;;;;;16.12;71.95;96230.47;5055250;28;20052;-60
2021/08/19 03:25:38;;;;;;;5.80;4.38;;;;;;;16.08;72.30;96235.13;5055154;28;20025;-60
2021/08/19 03:28:07;;;;;;;7.28;4.30;;;;;;;16.11;72.42;96244.63;5055096;28;20483;-61
2021/08/19 03:30:33;;;;;;;8.75;4.20;;;;;;;16.07;71.75;96237.84;5054962;28;20029;-61
2021/08/19 03:33:03;;;;;;;10.80;4.50;;;;;;;15.97;72.54;96237.59;5055066;28;20048;-61
2021/08/19 03:35:28;;;;;;;7.35;4.07;;;;;;;15.99;72.96;96248.91;5054929;28;20025;-60
2021/08/19 03:37:54;;;;;;;5.13;4.15;;;;;;;16.02;72.51;96257.44;5054864;28;20025;-60
2021/08/19 03:40:19;;;;;;;7.53;4.30;;;;;;;16.07;73.40;96254.50;5054684;28;20136;-61
2021/08/19 03:42:46;;;;;;;9.15;4.20;;;;;;;16.08;72.30;96256.22;5054964;28;20471;-60
2021/08/19 03:45:12;;;;;;;8.50;3.92;;;;;;;16.07;71.93;96257.16;5054762;28;20025;-60
2021/08/19 03:47:37;;;;;;;6.05;4.68;;;;;;;15.88;72.36;96260.09;5054677;28;20147;-60
2021/08/19 03:50:05;;;;;;;8.82;4.20;;;;;;;15.76;72.93;96262.59;5054546;28;20072;-60
2021/08/19 03:52:31;;;;;;;5.85;4.47;;;;;;;15.65;73.28;96265.88;5054617;28;20053;-60
2021/08/19 03:54:57;;;;;;;8.57;4.85;;;;;;;15.76;73.84;96273.13;5054630;28;20053;-60
2021/08/19 03:57:23;;;;;;;7.68;4.20;;;;;;;15.86;73.63;96277.81;5054598;28;20455;-60
2021/08/19 03:59:48;;;;;;;11.10;4.05;;;;;;;15.91;73.22;96278.38;5054480;28;20075;-61
2021/08/19 04:02:14;;;;;;;7.00;4.55;;;;;;;15.97;72.75;96282.44;5054461;28;20036;-61
2021/08/19 04:04:39;;;;;;;14.38;3.90;;;;;;;16.00;72.59;96279.59;5054339;28;20036;-60
2021/08/19 04:07:05;;;;;;;6.80;4.05;;;;;;;16.11;72.14;96281.56;5054338;28;20056;-60
2021/08/19 04:09:30;;;;;;;10.13;3.85;;;;;;;16.12;72.16;96283.22;5054254;28;20459;-59
2021/08/19 04:11:56;;;;;;;10.15;4.43;;;;;;;16.29;71.99;96280.34;5054227;28;20467;-62
2021/08/19 04:14:21;;;;;;;7.22;3.90;;;;;;;16.53;71.01;96279.66;5054283;28;20466;-60
2021/08/19 04:16:47;;;;;;;5.70;3.50;;;;;;;16.90;69.96;96281.66;5054217;28;20021;-61
2021/08/19 04:19:13;;;;;;;6.13;3.78;;;;;;;17.28;68.99;96284.44;5054170;28;20024;-60
2021/08/19 04:21:39;;;;;;;11.82;3.22;;;;;;;17.63;67.71;96278.47;5054105;28;20100;-60
2021/08/19 04:24:04;;;;;;;6.00;3.70;;;;;;;18.04;66.97;96279.13;5054119;28;20385;-60
2021/08/19 04:26:30;;;;;;;5.00;3.53;;;;;;;18.40;66.15;96276.56;5054044;28;20446;-60
2021/08/19 04:28:55;;;;;;;4.47;2.97;;;;;;;18.78;65.24;96279.09;5054056;28;20490;-61
2021/08/19 04:31:21;;;;;;;6.15;3.28;;;;;;;19.09;63.85;96278.56;5053837;28;20466;-60
2021/08/19 04:33:46;;;;;;;8.38;3.13;;;;;;;19.50;62.33;96281.63;5053863;28;20479;-61
2021/08/19 04:36:12;;;;;;;5.22;3.00;;;;;;;19.88;60.65;96276.88;5053822;28;20029;-61
2021/08/19 04:38:37;;;;;;;5.72;3.17;;;;;;;20.26;60.91;96272.13;5053713;28;20390;-60
2021/08/19 04:41:03;;;;;;;3.08;2.78;;;;;;;20.54;59.13;96275.16;5053498;28;20107;-61
2021/08/19 04:43:29;;;;;;;4.15;2.92;;;;;;;20.86;59.19;96276.09;5053654;28;20025;-60
2021/08/19 04:45:55;;;;;;;5.90;3.15;;;;;;;21.23;58.29;96283.66;5053834;28;20021;-61
2021/08/19 04:48:21;;;;;;;5.43;3.17;;;;;;;21.41;56.83;96281.22;5053503;28;20021;-61
2021/08/19 04:50:46;;;;;;;8.18;3.10;;;;;;;21.67;57.66;96288.72;5053433;28;20105;-62
2021/08/19 04:53:12;;;;;;;6.80;2.95;;;;;;;21.71;55.82;96299.97;5053522;28;20379;-61
2021/08/19 04:55:37;;;;;;;3.28;2.72;;;;;;;21.45;56.86;96300.41;5053501;28;20029;-59
2021/08/19 04:58:03;;;;;;;9.35;2.80;;;;;;;21.63;56.36;96299.78;5053434;28;20017;-60
2021/08/19 05:00:29;;;;;;;6.40;2.97;;;;;;;22.00;56.47;96303.72;5053002;28;20489;-60
2021/08/19 05:02:55;;;;;;;4.10;2.35;;;;;;;22.28;55.52;96307.44;5053361;28;20075;-61
2021/08/19 05:05:21;;;;;;;4.88;3.10;;;;;;;22.53;55.26;96297.22;5053315;28;20100;-61
2021/08/19 05:07:46;;;;;;;13.32;2.83;;;;;;;22.94;55.51;96304.25;5053292;28;20025;-61
2021/08/19 05:10:12;;;;;;;4.95;2.60;;;;;;;22.99;53.41;96303.84;5053244;28;20037;-61
2021/08/19 05:12:38;;;;;;;7.80;2.92;;;;;;;23.28;53.82;96298.44;5053163;28;20462;-60
2021/08/19 05:15:04;;;;;;;7.95;3.05;;;;;;;23.71;53.94;96303.38;5053203;28;20079;-59
2021/08/19 05:17:30;;;;;;;4.63;2.60;;;;;;;24.20;52.41;96313.84;5053528;28;20017;-61
2021/08/19 05:19:55;;;;;;;5.53;2.33;;;;;;;24.67;51.61;96313.81;5053270;28;20536;-60
2021/08/19 05:22:21;;;;;;;4.05;2.63;;;;;;;25.02;50.88;96311.31;5053171;28;20482;-61
2021/08/19 05:24:46;;;;;;;4.50;2.75;;;;;;;25.43;49.84;96321.47;5053117;28;20055;-61
2021/08/19 05:27:12;;;;;;;8.77;2.47;;;;;;;25.70;49.53;96315.13;5053044;28;20550;-61
2021/08/19 05:29:38;;;;;;;3.00;2.38;;;;;;;25.94;47.42;96318.06;5052878;28;20025;-61
2021/08/19 05:32:03;;;;;;;5.40;2.65;;;;;;;26.31;47.11;96324.09;5052955;28;20073;-61
2021/08/19 05:34:29;;;;;;;3.83;2.67;;;;;;;26.55;44.27;96325.97;5054071;28;20021;-60
2021/08/19 05:36:55;;;;;;;7.45;3.13;;;;;;;26.75;45.63;96329.22;5053230;28;20040;-61
2021/08/19 05:39:20;;;;;;;7.30;2.50;;;;;;;27.04;45.38;96331.59;5058080;28;20467;-61
2021/08/19 05:41:46;;;;;;;5.95;2.67;;;;;;;27.16;47.53;96321.38;5054152;28;20036;-61
2021/08/19 05:44:12;;;;;;;5.05;2.67;;;;;;;27.42;46.55;96325.72;5053730;28;20433;-61
2021/08/19 05:46:40;;;;;;;5.15;2.20;;;;;;;27.70;45.25;96328.88;5052962;28;20390;-60
2021/08/19 05:49:07;;;;;;;5.90;2.72;;;;;;;27.93;44.37;96333.47;5052823;28;20021;-61
2021/08/19 05:51:33;;;;;;;3.78;3.03;;;;;;;28.19;44.02;96332.38;5052953;28;20028;-61
2021/08/19 05:53:58;;;;;;;7.40;3.03;;;;;;;28.29;42.11;96334.03;5052747;28;20525;-62
2021/08/19 05:56:24;;;;;;;5.15;2.70;;;;;;;28.43;42.90;96336.00;5052769;28;20485;-61
2021/08/19 05:58:49;;;;;;;4.60;2.80;;;;;;;28.70;43.78;96333.81;5052730;28;20112;-62
2021/08/19 06:01:15;;;;;;;2.92;2.38;;;;;;;28.69;42.22;96334.84;5052656;28;20037;-62
2021/08/19 06:03:40;;;;;;;6.10;2.90;;;;;;;28.82;41.31;96338.75;5052611;28;20028;-61
2021/08/19 06:06:06;;;;;;;8.65;3.20;;;;;;;28.85;40.25;96331.19;5052828;28;20029;-61
2021/08/19 06:08:32;;;;;;;6.72;3.05;;;;;;;28.95;40.19;96335.53;5052731;28;20072;-61
2021/08/19 06:10:57;;;;;;;7.82;2.53;;;;;;;28.97;39.58;96328.94;5052510;28;20112;-61
2021/08/19 06:13:23;;;;;;;4.40;2.70;;;;;;;29.15;40.89;96341.25;5055428;28;20029;-61
2021/08/19 06:15:49;;;;;;;5.60;3.22;;;;;;;28.45;36.85;96330.44;5056437;28;20029;-61
2021/08/19 06:18:14;;;;;;;7.70;2.95;;;;;;;28.29;41.23;96339.41;5056415;28;20092;-60
2021/08/19 06:20:40;;;;;;;5.28;2.35;;;;;;;28.41;37.36;96332.63;5056460;28;20466;-61
2021/08/19 06:23:12;;;;;;;7.43;2.60;;;;;;;28.29;34.48;96337.56;5056410;28;20593;-61
2021/08/19 06:25:39;;;;;;;5.88;2.75;;;;;;;28.24;37.10;96337.25;5055174;28;20410;-62
2021/08/19 06:28:05;;;;;;;8.48;2.88;;;;;;;28.10;38.70;96341.47;5056335;28;20021;-61
2021/08/19 06:30:33;;;;;;;8.13;2.95;;;;;;;27.86;34.48;96340.56;5056281;28;20482;-61
2021/08/19 06:33:00;;;;;;;7.18;2.90;;;;;;;27.94;35.49;96337.03;5056203;28;20039;-60
2021/08/19 06:35:26;;;;;;;4.85;2.67;;;;;;;28.02;37.97;96339.66;5056163;28;20360;-60
2021/08/19 06:37:52;;;;;;;4.68;2.83;;;;;;;28.11;34.23;96341.31;5055985;28;20028;-60
2021/08/19 06:40:17;;;;;;;4.60;2.80;;;;;;;28.32;35.27;96347.97;5055903;28;20087;-60
2021/08/19 06:42:43;;;;;;;4.07;2.60;;;;;;;28.43;34.27;96345.91;5055993;28;20024;-61
2021/08/19 06:45:09;;;;;;;3.03;2.25;;;;;;;28.32;32.17;96355.22;5056101;28;20088;-61
2021/08/19 06:47:35;;;;;;;6.55;2.50;;;;;;;28.16;32.89;96339.94;5056081;28;20109;-61
2021/08/19 06:50:00;;;;;;;3.72;2.63;;;;;;;28.22;34.82;96350.00;5055778;28;20120;-60
2021/08/19 06:52:26;;;;;;;5.13;2.33;;;;;;;28.33;34.05;96344.28;5056001;28;20383;-60
2021/08/19 06:54:52;;;;;;;3.83;3.30;;;;;;;28.52;35.33;96352.91;5055807;28;20382;-60
2021/08/19 06:57:18;;;;;;;4.10;2.35;;;;;;;28.78;32.26;96349.06;5055797;28;20489;-61
2021/08/19 06:59:43;;;;;;;6.38;2.58;;;;;;;28.87;31.06;96356.03;5055623;28;20064;-61
2021/08/19 07:02:09;;;;;;;5.53;3.10;;;;;;;28.78;32.67;96346.38;5055905;28;20033;-60
2021/08/19 07:04:35;;;;;;;4.70;2.58;;;;;;;28.65;30.66;96351.50;5055688;28;20019;-61
2021/08/19 07:07:01;;;;;;;5.43;3.05;;;;;;;28.63;31.53;96357.06;5055599;28;20111;-60
2021/08/19 07:09:26;;;;;;;6.05;3.60;;;;;;;28.24;31.80;96353.38;5055597;28;20029;-61
2021/08/19 07:11:52;;;;;;;8.00;2.78;;;;;;;28.59;31.21;96358.44;5055556;28;20021;-60
2021/08/19 07:25:08;;;;;;;6.07;2.53;;;;;;;29.81;29.32;96350.56;5131469;27;20434;-59
2021/08/19 07:27:34;;;;;;;4.13;2.60;;;;;;;29.92;27.96;96348.44;5131676;27;20059;-58
2021/08/19 07:29:59;;;;;;;5.13;2.50;;;;;;;30.04;28.21;96355.03;5131331;28;20357;-59
2021/08/19 07:32:25;;;;;;;5.20;2.30;;;;;;;30.39;27.12;96352.59;5131221;27;20019;-58
2021/08/19 07:34:50;;;;;;;3.65;2.38;;;;;;;30.53;27.03;96358.16;5131297;27;20537;-59
2021/08/19 07:37:16;;;;;;;5.43;2.83;;;;;;;30.94;27.37;96353.22;5131196;27;20465;-59
2021/08/19 07:39:41;;;;;;;4.82;2.53;;;;;;;31.27;26.33;96353.50;5131011;27;20032;-60
2021/08/19 07:42:07;;;;;;;7.45;2.35;;;;;;;31.13;26.15;96354.44;5131173;27;20011;-59
2021/08/19 07:44:33;;;;;;;5.78;3.05;;;;;;;31.19;24.93;96360.91;5129836;28;20019;-60
2021/08/19 07:46:58;;;;;;;8.82;2.80;;;;;;;30.99;27.01;96361.56;5131086;27;20072;-60
2021/08/19 07:49:24;;;;;;;3.97;2.58;;;;;;;31.30;28.16;96360.38;5130972;27;20503;-60
2021/08/19 07:51:49;;;;;;;4.72;2.55;;;;;;;31.34;27.98;96364.38;5130969;27;20039;-60
2021/08/19 07:54:16;;;;;;;5.18;2.80;;;;;;;31.53;27.04;96359.34;5130760;27;20104;-60
2021/08/19 07:56:42;;;;;;;5.88;2.95;;;;;;;31.49;24.90;96358.91;5130835;27;20028;-58
2021/08/19 07:59:08;;;;;;;4.40;3.10;;;;;;;31.33;26.58;96353.78;5130828;27;20024;-59
2021/08/19 08:01:33;;;;;;;8.57;2.60;;;;;;;31.13;25.76;96354.44;5130608;27;20103;-59
2021/08/19 08:03:59;;;;;;;4.40;2.72;;;;;;;30.34;26.54;96348.81;5130548;28;20110;-59
2021/08/19 08:06:24;;;;;;;8.20;3.13;;;;;;;29.95;27.70;96350.75;5130605;27;20376;-58
2021/08/19 08:08:52;;;;;;;5.05;2.72;;;;;;;29.80;28.16;96348.91;5130527;28;20030;-59
2021/08/19 08:11:17;;;;;;;6.85;2.90;;;;;;;29.62;28.10;96347.38;5130498;27;20440;-59
2021/08/19 08:13:43;;;;;;;3.22;2.42;;;;;;;29.71;29.47;96350.00;5130362;27;20059;-58
2021/08/19 08:16:08;;;;;;;8.00;2.63;;;;;;;29.66;30.18;96345.19;5130384;27;20076;-59
2021/08/19 08:18:34;;;;;;;4.55;2.85;;;;;;;29.39;27.78;96353.66;5130405;27;20083;-59
2021/08/19 08:21:02;;;;;;;3.75;2.83;;;;;;;29.20;27.61;96351.47;5130383;27;20452;-59
2021/08/19 08:23:32;;;;;;;3.03;2.42;;;;;;;29.19;30.25;96350.63;5130019;27;20087;-59
2021/08/19 08:25:59;;;;;;;8.05;3.25;;;;;;;29.41;29.84;96352.63;5117214;27;20408;-58
2021/08/19 08:28:30;;;;;;;5.07;2.70;;;;;;;29.20;28.21;96348.78;5116482;28;20157;-59
2021/08/19 08:30:57;;;;;;;5.28;2.55;;;;;;;28.99;29.61;96347.59;5116515;28;20054;-59
2021/08/19 08:33:23;;;;;;;4.35;3.20;;;;;;;28.76;29.97;96341.16;5116443;27;20027;-59
2021/08/19 08:35:51;;;;;;;4.15;2.85;;;;;;;28.34;30.17;96353.16;5116417;28;20114;-59
2021/08/19 08:38:19;;;;;;;8.77;2.75;;;;;;;28.28;30.51;96346.63;5116276;28;20038;-60
2021/08/19 08:40:47;;;;;;;3.72;2.42;;;;;;;28.44;29.78;96351.09;5116284;28;20028;-59
2021/08/19 08:43:14;;;;;;;7.03;3.00;;;;;;;28.07;30.46;96347.22;5116304;28;20431;-59
2021/08/19 08:45:41;;;;;;;5.13;2.85;;;;;;;28.10;31.37;96347.72;5116234;28;20024;-58
2021/08/19 08:48:15;;;;;;;5.25;2.80;;;;;;;28.35;31.77;96336.88;5116113;28;20071;-59
2021/08/19 08:50:43;;;;;;;4.57;2.65;;;;;;;28.62;29.71;96345.44;5116100;28;20024;-59
2021/08/19 08:53:09;;;;;;;8.50;2.45;;;;;;;28.96;30.17;96343.41;5115854;28;20035;-59
2021/08/19 08:55:36;;;;;;;6.97;2.80;;;;;;;28.86;28.89;96337.38;5116029;28;20028;-59
2021/08/19 08:58:02;;;;;;;3.83;2.67;;;;;;;28.44;29.65;96326.91;5115949;28;20060;-59
2021/08/19 09:00:28;;;;;;;6.38;2.90;;;;;;;28.59;30.77;96336.91;5115922;28;20027;-58
2021/08/19 09:02:54;;;;;;;6.10;2.53;;;;;;;28.71;30.22;96332.78;5115782;28;20036;-59
2021/08/19 09:05:24;;;;;;;6.72;3.20;;;;;;;28.55;30.34;96332.88;5115802;27;20032;-59
2021/08/19 09:07:59;;;;;;;;;;;;;;;28.43;30.53;96336.00;5116157;28;20098;-59
2021/08/19 09:10:35;;;;;;;5.13;2.92;;;;;;;28.18;31.61;96333.41;5115669;28;19915;-59
2021/08/19 09:13:13;;;;;;;4.78;2.80;;;;;;;28.03;31.59;96332.44;5115624;28;20042;-59
2021/08/19 09:15:38;;;;;;;4.75;3.10;;;;;;;28.04;30.87;96336.81;5115575;28;20438;-58
2021/08/19 09:18:04;;;;;;;4.65;3.55;;;;;;;28.35;32.07;96333.34;5115526;28;20049;-60
2021/08/19 09:20:43;;;;;;;5.53;3.35;;;;;;;28.80;33.21;96324.69;5115510;28;20392;-59
2021/08/19 09:23:15;;;;;;;6.05;3.42;;;;;;;29.20;31.48;96321.84;5115300;28;20397;-60
2021/08/19 09:25:42;;;;;;;6.28;3.10;;;;;;;29.22;29.72;96326.03;5115393;28;20027;-59
2021/08/19 09:28:21;;;;;;;4.65;3.03;;;;;;;28.98;30.19;96319.84;5115360;28;20047;-58
2021/08/19 09:30:48;;;;;;;6.20;3.22;;;;;;;28.71;30.13;96321.22;5115425;28;20024;-59
2021/08/19 09:33:43;;;;;;;5.40;3.40;;;;;;;28.45;30.21;96320.53;5115242;28;20384;-59
2021/08/19 09:36:08;;;;;;;6.45;3.33;;;;;;;28.22;31.31;96323.13;5111189;28;20077;-58
2021/08/19 09:38:43;;;;;;;6.28;3.53;;;;;;;28.40;32.34;96322.91;5115172;28;20026;-60
2021/08/19 09:41:19;;;;;;;3.75;2.75;;;;;;;28.50;31.11;96326.19;5115148;28;20099;-58
2021/08/19 09:43:54;;;;;;;4.65;3.10;;;;;;;28.24;30.67;96319.22;5115079;28;20079;-59
2021/08/19 09:46:31;;;;;;;9.32;3.20;;;;;;;27.85;32.33;96322.78;5115154;28;20027;-59
2021/08/19 09:49:00;;;;;;;3.50;2.97;;;;;;;27.87;31.85;96312.69;5114952;28;20164;-59
2021/08/19 09:51:26;;;;;;;4.45;3.05;;;;;;;28.14;32.12;96315.94;5114757;28;20027;-60
2021/08/19 09:53:55;;;;;;;6.13;3.22;;;;;;;28.41;31.76;96315.69;5114757;28;20069;-60
2021/08/19 09:56:31;;;;;;;5.70;3.40;;;;;;;28.26;30.95;96321.75;5114814;28;20031;-60
2021/08/19 09:59:17;;;;;;;5.68;3.40;;;;;;;28.04;31.61;96316.16;5114767;28;20024;-59
2021/08/19 10:01:42;;;;;;;3.70;2.75;;;;;;;28.08;31.07;96312.09;5114783;28;20024;-59
2021/08/19 10:04:08;;;;;;;7.03;3.42;;;;;;;28.28;31.46;96305.44;5114569;28;20046;-60
2021/08/19 10:06:34;;;;;;;3.75;2.83;;;;;;;28.40;29.52;96309.44;5114667;28;20019;-59
2021/08/19 10:09:00;;;;;;;4.82;3.33;;;;;;;28.50;30.59;96304.69;5114576;28;20487;-58
2021/08/19 10:11:28;;;;;;;5.00;3.20;;;;;;;28.66;30.25;96310.97;5114535;28;20016;-59
2021/08/19 10:13:54;;;;;;;6.43;3.22;;;;;;;28.43;29.73;96298.34;5114487;27;20043;-58
2021/08/19 10:16:21;;;;;;;5.03;3.22;;;;;;;28.51;30.06;96303.66;5114347;28;20035;-59
2021/08/19 10:18:50;;;;;;;5.00;3.10;;;;;;;28.27;30.23;96301.94;5114392;28;20421;-58
2021/08/19 10:21:18;;;;;;;4.72;3.17;;;;;;;28.02;29.83;96299.34;5114276;28;20023;-58
2021/08/19 10:23:47;;;;;;;7.28;3.20;;;;;;;27.91;30.80;96294.38;5114022;28;20481;-58
2021/08/19 10:26:18;;;;;;;4.28;3.25;;;;;;;27.74;31.17;96303.34;5114180;28;20024;-60
2021/08/19 10:28:49;;;;;;;4.22;3.17;;;;;;;27.59;31.19;96291.59;5114166;28;20469;-59
2021/08/19 10:31:39;;;;;;;3.50;2.92;;;;;;;27.09;31.55;96300.56;5114153;28;20035;-59
2021/08/19 10:34:07;;;;;;;4.88;2.80;;;;;;;26.94;32.51;96300.38;5114194;28;20473;-58
2021/08/19 10:36:38;;;;;;;9.70;3.38;;;;;;;26.83;33.69;96298.88;5114116;28;20465;-59
2021/08/19 10:39:19;;;;;;;3.92;3.05;;;;;;;26.87;33.61;96299.38;5114198;28;20044;-58
2021/08/19 10:41:49;;;;;;;5.22;3.38;;;;;;;26.72;31.98;96300.03;5114011;28;20024;-59
2021/08/19 10:44:15;;;;;;;3.33;2.88;;;;;;;26.66;32.74;96306.06;5114191;28;20035;-59
2021/08/19 10:46:46;;;;;;;8.60;3.03;;;;;;;26.68;34.51;96297.84;5113866;28;20023;-59
2021/08/19 10:49:30;;;;;;;4.55;3.15;;;;;;;26.74;32.68;96299.88;5113664;28;20490;-59
2021/08/19 10:52:16;;;;;;;3.72;2.70;;;;;;;26.97;32.72;96296.53;5113837;28;20024;-59
2021/08/19 10:54:50;;;;;;;4.32;2.97;;;;;;;27.34;32.72;96288.97;5113560;28;20028;-59
2021/08/19 10:57:23;;;;;;;4.82;2.83;;;;;;;27.65;31.23;96284.72;5113824;28;20522;-59
2021/08/19 10:59:59;;;;;;;3.75;3.00;;;;;;;27.89;31.42;96291.84;5113734;28;20037;-59
2021/08/19 11:02:43;;;;;;;6.22;3.13;;;;;;;28.09;30.65;96286.06;5113766;28;20051;-58
2021/08/19 11:05:21;;;;;;;4.03;2.90;;;;;;;28.25;31.00;96288.66;5113644;28;20054;-59
2021/08/19 11:07:54;;;;;;;3.92;3.38;;;;;;;28.65;33.33;96277.00;5113582;28;20144;-59
2021/08/19 11:10:24;;;;;;;5.53;3.33;;;;;;;29.06;29.68;96275.03;5113714;28;20027;-59
2021/08/19 11:12:50;;;;;;;6.07;2.85;;;;;;;29.14;30.28;96269.59;5113554;28;20038;-59
2021/08/19 11:15:16;;;;;;;5.95;3.08;;;;;;;29.36;29.92;96264.31;5113485;28;20028;-59
2021/08/19 11:17:53;;;;;;;7.28;2.65;;;;;;;29.44;28.26;96271.47;5113483;28;20152;-59
2021/08/19 11:20:23;;;;;;;11.77;3.45;;;;;;;28.97;28.08;96256.28;5113427;28;20027;-59
2021/08/19 11:23:11;;;;;;;8.90;3.03;;;;;;;28.45;29.39;96264.06;5113281;28;20039;-59
2021/08/19 11:25:43;;;;;;;6.18;3.03;;;;;;;28.01;29.95;96270.81;5113467;28;20473;-60
2021/08/19 11:28:14;;;;;;;3.28;2.58;;;;;;;27.80;30.45;96266.88;5113576;28;20070;-59
2021/08/19 11:30:50;;;;;;;4.90;2.92;;;;;;;27.85;30.97;96261.84;5113364;28;20027;-58
2021/08/19 11:33:29;;;;;;;3.28;2.88;;;;;;;27.90;30.73;96260.47;5113327;28;20024;-59
2021/08/19 11:35:59;;;;;;;3.30;2.85;;;;;;;28.02;29.96;96260.91;5113361;28;20031;-59
2021/08/19 11:38:26;;;;;;;6.30;3.05;;;;;;;28.15;32.52;96265.72;5113467;28;20115;-60
2021/08/19 11:40:57;;;;;;;7.25;3.22;;;;;;;28.41;31.76;96253.84;5113298;28;20047;-59
2021/08/19 11:43:30;;;;;;;5.57;3.33;;;;;;;28.76;31.50;96256.91;5113375;28;20031;-59